sensor_id;sensor_type;location;lat;lon;timestamp;P1;durP1;ratioP1;P2;durP2;ratioP2
59653;SDS011;66556;52.008;5.432;2023-03-25T00:00:08;14.0;;;2.9;;
59653;SDS011;66556;52.008;5.432;2023-03-25T00:01:46;17.7;;;3.2;;
59653;SDS011;66556;52.008;5.432;2023-03-25T00:05:00;16.9;;;2.7;;
59653;SDS011;66556;52.008;5.432;2023-03-25T00:06:36;17.7;;;3.0;;
59653;SDS011;66556;52.008;5.432;2023-03-25T00:08:12;11.7;;;2.21;;
59653;SDS011;66556;52.008;5.432;2023-03-25T00:11:24;14.1;;;3.1;;
59653;SDS011;66556;52.008;5.432;2023-03-25T00:13:00;16.5;;;3.1;;
59653;SDS011;66556;52.008;5.432;2023-03-25T00:14:36;17.0;;;3.2;;
59653;SDS011;66556;52.008;5.432;2023-03-25T00:17:50;15.0;;;2.8;;
59653;SDS011;66556;52.008;5.432;2023-03-25T00:19:26;16.7;;;2.9;;
59653;SDS011;66556;52.008;5.432;2023-03-25T00:21:03;15.5;;;3.2;;
59653;SDS011;66556;52.008;5.432;2023-03-25T00:22:41;15.5;;;3.2;;
59653;SDS011;66556;52.008;5.432;2023-03-25T00:25:53;16.4;;;3.3;;
59653;SDS011;66556;52.008;5.432;2023-03-25T00:27:29;16.61;;;3.3;;
59653;SDS011;66556;52.008;5.432;2023-03-25T00:29:06;16.7;;;3.0;;
59653;SDS011;66556;52.008;5.432;2023-03-25T00:32:19;20.11;;;3.7;;
59653;SDS011;66556;52.008;5.432;2023-03-25T00:33:55;17.61;;;3.5;;
59653;SDS011;66556;52.008;5.432;2023-03-25T00:35:31;17.41;;;3.3;;
59653;SDS011;66556;52.008;5.432;2023-03-25T00:38:46;16.61;;;3.5;;
59653;SDS011;66556;52.008;5.432;2023-03-25T00:40:24;20.9;;;3.7;;
59653;SDS011;66556;52.008;5.432;2023-03-25T00:42:01;17.7;;;3.4;;
59653;SDS011;66556;52.008;5.432;2023-03-25T00:43:37;18.8;;;3.3;;
59653;SDS011;66556;52.008;5.432;2023-03-25T00:46:49;16.4;;;3.5;;
59653;SDS011;66556;52.008;5.432;2023-03-25T00:48:25;13.2;;;3.1;;
59653;SDS011;66556;52.008;5.432;2023-03-25T00:50:01;16.5;;;3.1;;
59653;SDS011;66556;52.008;5.432;2023-03-25T00:53:15;16.2;;;3.3;;
59653;SDS011;66556;52.008;5.432;2023-03-25T00:54:51;15.6;;;3.1;;
59653;SDS011;66556;52.008;5.432;2023-03-25T00:56:27;18.11;;;3.9;;
59653;SDS011;66556;52.008;5.432;2023-03-25T00:59:40;17.2;;;3.4;;
59653;SDS011;66556;52.008;5.432;2023-03-25T01:01:17;18.91;;;3.9;;
59653;SDS011;66556;52.008;5.432;2023-03-25T01:02:55;16.5;;;3.5;;
59653;SDS011;66556;52.008;5.432;2023-03-25T01:04:32;20.6;;;3.7;;
59653;SDS011;66556;52.008;5.432;2023-03-25T01:07:46;19.91;;;3.5;;
59653;SDS011;66556;52.008;5.432;2023-03-25T01:09:22;17.8;;;3.3;;
59653;SDS011;66556;52.008;5.432;2023-03-25T01:10:58;14.6;;;3.0;;
59653;SDS011;66556;52.008;5.432;2023-03-25T01:14:12;16.8;;;3.2;;
59653;SDS011;66556;52.008;5.432;2023-03-25T01:15:50;13.0;;;3.1;;
59653;SDS011;66556;52.008;5.432;2023-03-25T01:17:26;14.5;;;2.9;;
59653;SDS011;66556;52.008;5.432;2023-03-25T01:19:02;20.0;;;3.5;;
59653;SDS011;66556;52.008;5.432;2023-03-25T01:22:15;19.2;;;3.3;;
59653;SDS011;66556;52.008;5.432;2023-03-25T01:23:51;16.9;;;2.9;;
59653;SDS011;66556;52.008;5.432;2023-03-25T01:25:27;12.3;;;2.9;;
59653;SDS011;66556;52.008;5.432;2023-03-25T01:28:40;18.8;;;3.2;;
59653;SDS011;66556;52.008;5.432;2023-03-25T01:30:17;12.3;;;2.9;;
59653;SDS011;66556;52.008;5.432;2023-03-25T01:31:53;17.8;;;3.2;;
59653;SDS011;66556;52.008;5.432;2023-03-25T01:35:06;17.8;;;3.2;;
59653;SDS011;66556;52.008;5.432;2023-03-25T01:36:43;16.61;;;3.1;;
59653;SDS011;66556;52.008;5.432;2023-03-25T01:38:19;16.0;;;3.4;;
59653;SDS011;66556;52.008;5.432;2023-03-25T01:39:55;16.9;;;3.1;;
59653;SDS011;66556;52.008;5.432;2023-03-25T01:43:10;15.7;;;3.0;;
59653;SDS011;66556;52.008;5.432;2023-03-25T01:45:21;14.9;;;3.3;;
59653;SDS011;66556;52.008;5.432;2023-03-25T01:47:27;15.8;;;3.1;;
59653;SDS011;66556;52.008;5.432;2023-03-25T01:49:05;14.8;;;3.0;;
59653;SDS011;66556;52.008;5.432;2023-03-25T01:50:46;15.1;;;2.8;;
59653;SDS011;66556;52.008;5.432;2023-03-25T01:52:31;18.61;;;3.2;;
59653;SDS011;66556;52.008;5.432;2023-03-25T01:55:44;15.5;;;2.9;;
59653;SDS011;66556;52.008;5.432;2023-03-25T01:57:21;12.9;;;2.9;;
59653;SDS011;66556;52.008;5.432;2023-03-25T01:58:59;15.5;;;2.9;;
59653;SDS011;66556;52.008;5.432;2023-03-25T02:02:18;15.1;;;3.1;;
59653;SDS011;66556;52.008;5.432;2023-03-25T02:03:57;14.9;;;2.8;;
59653;SDS011;66556;52.008;5.432;2023-03-25T02:05:36;14.6;;;2.8;;
59653;SDS011;66556;52.008;5.432;2023-03-25T02:07:18;13.7;;;3.0;;
59653;SDS011;66556;52.008;5.432;2023-03-25T02:10:33;13.9;;;3.0;;
59653;SDS011;66556;52.008;5.432;2023-03-25T02:12:10;15.4;;;3.0;;
59653;SDS011;66556;52.008;5.432;2023-03-25T02:13:46;15.4;;;3.0;;
59653;SDS011;66556;52.008;5.432;2023-03-25T02:17:01;16.11;;;3.0;;
59653;SDS011;66556;52.008;5.432;2023-03-25T02:18:50;17.8;;;3.2;;
59653;SDS011;66556;52.008;5.432;2023-03-25T02:20:48;20.8;;;3.7;;
59653;SDS011;66556;52.008;5.432;2023-03-25T02:27:45;18.8;;;3.4;;
59653;SDS011;66556;52.008;5.432;2023-03-25T02:29:36;15.7;;;3.3;;
59653;SDS011;66556;52.008;5.432;2023-03-25T02:32:53;16.5;;;3.6;;
59653;SDS011;66556;52.008;5.432;2023-03-25T02:35:54;19.7;;;3.0;;
59653;SDS011;66556;52.008;5.432;2023-03-25T02:37:53;20.9;;;3.5;;
59653;SDS011;66556;52.008;5.432;2023-03-25T02:39:54;14.0;;;3.1;;
59653;SDS011;66556;52.008;5.432;2023-03-25T02:41:36;14.8;;;2.8;;
59653;SDS011;66556;52.008;5.432;2023-03-25T02:43:19;14.5;;;2.7;;
59653;SDS011;66556;52.008;5.432;2023-03-25T02:45:02;14.9;;;3.3;;
59653;SDS011;66556;52.008;5.432;2023-03-25T02:48:36;14.0;;;3.2;;
59653;SDS011;66556;52.008;5.432;2023-03-25T02:50:18;14.7;;;2.8;;
59653;SDS011;66556;52.008;5.432;2023-03-25T02:52:01;16.0;;;3.3;;
59653;SDS011;66556;52.008;5.432;2023-03-25T02:53:43;13.8;;;3.0;;
59653;SDS011;66556;52.008;5.432;2023-03-25T02:55:23;14.1;;;3.0;;
59653;SDS011;66556;52.008;5.432;2023-03-25T02:58:42;10.5;;;2.8;;
59653;SDS011;66556;52.008;5.432;2023-03-25T03:00:22;12.1;;;2.9;;
59653;SDS011;66556;52.008;5.432;2023-03-25T03:02:03;12.1;;;2.8;;
59653;SDS011;66556;52.008;5.432;2023-03-25T03:03:42;14.1;;;3.2;;
59653;SDS011;66556;52.008;5.432;2023-03-25T03:06:58;11.0;;;3.1;;
59653;SDS011;66556;52.008;5.432;2023-03-25T03:08:46;10.8;;;2.8;;
59653;SDS011;66556;52.008;5.432;2023-03-25T03:11:22;11.6;;;3.1;;
59653;SDS011;66556;52.008;5.432;2023-03-25T03:13:05;13.7;;;3.8;;
59653;SDS011;66556;52.008;5.432;2023-03-25T03:14:55;13.1;;;3.6;;
59653;SDS011;66556;52.008;5.432;2023-03-25T03:16:43;11.3;;;3.6;;
59653;SDS011;66556;52.008;5.432;2023-03-25T03:18:27;14.6;;;3.5;;
59653;SDS011;66556;52.008;5.432;2023-03-25T03:22:12;12.7;;;3.1;;
59653;SDS011;66556;52.008;5.432;2023-03-25T03:23:59;15.4;;;3.7;;
59653;SDS011;66556;52.008;5.432;2023-03-25T03:25:44;10.5;;;3.1;;
59653;SDS011;66556;52.008;5.432;2023-03-25T03:27:27;13.0;;;3.5;;
59653;SDS011;66556;52.008;5.432;2023-03-25T03:29:08;13.4;;;3.7;;
59653;SDS011;66556;52.008;5.432;2023-03-25T03:30:51;15.4;;;3.6;;
59653;SDS011;66556;52.008;5.432;2023-03-25T03:34:19;13.5;;;3.8;;
59653;SDS011;66556;52.008;5.432;2023-03-25T03:36:01;12.7;;;3.7;;
59653;SDS011;66556;52.008;5.432;2023-03-25T03:37:44;17.7;;;4.61;;
59653;SDS011;66556;52.008;5.432;2023-03-25T03:39:26;13.2;;;3.7;;
59653;SDS011;66556;52.008;5.432;2023-03-25T03:42:49;16.3;;;4.0;;
59653;SDS011;66556;52.008;5.432;2023-03-25T03:44:30;16.9;;;4.1;;
59653;SDS011;66556;52.008;5.432;2023-03-25T03:46:11;15.1;;;4.1;;
59653;SDS011;66556;52.008;5.432;2023-03-25T03:47:54;13.6;;;3.7;;
59653;SDS011;66556;52.008;5.432;2023-03-25T03:51:16;18.11;;;4.2;;
59653;SDS011;66556;52.008;5.432;2023-03-25T03:52:59;16.5;;;3.5;;
59653;SDS011;66556;52.008;5.432;2023-03-25T03:54:43;16.5;;;4.1;;
59653;SDS011;66556;52.008;5.432;2023-03-25T03:56:24;15.0;;;3.6;;
59653;SDS011;66556;52.008;5.432;2023-03-25T03:58:06;16.0;;;4.2;;
59653;SDS011;66556;52.008;5.432;2023-03-25T04:01:32;16.3;;;4.0;;
59653;SDS011;66556;52.008;5.432;2023-03-25T04:03:14;17.41;;;4.2;;
59653;SDS011;66556;52.008;5.432;2023-03-25T04:04:55;15.8;;;4.2;;
59653;SDS011;66556;52.008;5.432;2023-03-25T04:06:32;16.9;;;3.9;;
59653;SDS011;66556;52.008;5.432;2023-03-25T04:10:02;19.11;;;4.61;;
59653;SDS011;66556;52.008;5.432;2023-03-25T04:11:46;14.2;;;3.7;;
59653;SDS011;66556;52.008;5.432;2023-03-25T04:13:32;12.4;;;3.8;;
59653;SDS011;66556;52.008;5.432;2023-03-25T04:15:17;18.11;;;4.0;;
59653;SDS011;66556;52.008;5.432;2023-03-25T04:16:54;14.4;;;3.8;;
59653;SDS011;66556;52.008;5.432;2023-03-25T04:20:06;15.4;;;3.6;;
59653;SDS011;66556;52.008;5.432;2023-03-25T04:21:45;15.4;;;3.8;;
59653;SDS011;66556;52.008;5.432;2023-03-25T04:23:22;17.8;;;4.3;;
59653;SDS011;66556;52.008;5.432;2023-03-25T04:26:34;18.3;;;4.2;;
59653;SDS011;66556;52.008;5.432;2023-03-25T04:28:11;23.3;;;4.2;;
59653;SDS011;66556;52.008;5.432;2023-03-25T04:29:47;17.2;;;3.5;;
59653;SDS011;66556;52.008;5.432;2023-03-25T04:33:00;16.0;;;4.2;;
59653;SDS011;66556;52.008;5.432;2023-03-25T04:34:36;22.5;;;4.2;;
59653;SDS011;66556;52.008;5.432;2023-03-25T04:36:12;20.5;;;3.9;;
59653;SDS011;66556;52.008;5.432;2023-03-25T04:37:49;19.41;;;3.8;;
59653;SDS011;66556;52.008;5.432;2023-03-25T04:41:02;23.4;;;4.7;;
59653;SDS011;66556;52.008;5.432;2023-03-25T04:42:38;22.0;;;4.41;;
59653;SDS011;66556;52.008;5.432;2023-03-25T04:44:14;18.2;;;4.0;;
59653;SDS011;66556;52.008;5.432;2023-03-25T04:47:26;20.5;;;4.5;;
59653;SDS011;66556;52.008;5.432;2023-03-25T04:49:03;20.9;;;4.1;;
59653;SDS011;66556;52.008;5.432;2023-03-25T04:50:39;23.1;;;4.5;;
59653;SDS011;66556;52.008;5.432;2023-03-25T04:53:52;20.6;;;4.61;;
59653;SDS011;66556;52.008;5.432;2023-03-25T04:55:28;23.1;;;4.5;;
59653;SDS011;66556;52.008;5.432;2023-03-25T04:57:04;19.5;;;4.3;;
59653;SDS011;66556;52.008;5.432;2023-03-25T04:58:41;25.2;;;4.91;;
59653;SDS011;66556;52.008;5.432;2023-03-25T05:01:55;21.3;;;4.1;;
59653;SDS011;66556;52.008;5.432;2023-03-25T05:03:32;20.8;;;4.3;;
59653;SDS011;66556;52.008;5.432;2023-03-25T05:05:09;21.2;;;4.5;;
59653;SDS011;66556;52.008;5.432;2023-03-25T05:08:24;23.7;;;4.7;;
59653;SDS011;66556;52.008;5.432;2023-03-25T05:10:00;15.0;;;3.6;;
59653;SDS011;66556;52.008;5.432;2023-03-25T05:11:37;18.8;;;4.3;;
59653;SDS011;66556;52.008;5.432;2023-03-25T05:14:52;18.11;;;3.5;;
59653;SDS011;66556;52.008;5.432;2023-03-25T05:16:28;14.4;;;3.0;;
59653;SDS011;66556;52.008;5.432;2023-03-25T05:18:05;13.3;;;2.8;;
59653;SDS011;66556;52.008;5.432;2023-03-25T05:19:42;14.6;;;2.4;;
59653;SDS011;66556;52.008;5.432;2023-03-25T05:22:54;15.1;;;2.6;;
59653;SDS011;66556;52.008;5.432;2023-03-25T05:24:31;13.2;;;2.6;;
59653;SDS011;66556;52.008;5.432;2023-03-25T05:26:07;15.9;;;3.0;;
59653;SDS011;66556;52.008;5.432;2023-03-25T05:29:20;16.11;;;3.1;;
59653;SDS011;66556;52.008;5.432;2023-03-25T05:30:56;15.6;;;3.1;;
59653;SDS011;66556;52.008;5.432;2023-03-25T05:32:32;16.11;;;3.4;;
59653;SDS011;66556;52.008;5.432;2023-03-25T05:35:45;15.9;;;3.1;;
59653;SDS011;66556;52.008;5.432;2023-03-25T05:37:22;13.3;;;3.2;;
59653;SDS011;66556;52.008;5.432;2023-03-25T05:38:58;18.11;;;4.0;;
59653;SDS011;66556;52.008;5.432;2023-03-25T05:40:34;19.7;;;4.1;;
59653;SDS011;66556;52.008;5.432;2023-03-25T05:43:46;17.8;;;3.9;;
59653;SDS011;66556;52.008;5.432;2023-03-25T05:45:22;19.0;;;4.3;;
59653;SDS011;66556;52.008;5.432;2023-03-25T05:46:58;23.4;;;4.1;;
59653;SDS011;66556;52.008;5.432;2023-03-25T05:50:11;17.7;;;3.9;;
59653;SDS011;66556;52.008;5.432;2023-03-25T05:51:48;26.5;;;4.61;;
59653;SDS011;66556;52.008;5.432;2023-03-25T05:53:24;21.9;;;4.7;;
59653;SDS011;66556;52.008;5.432;2023-03-25T05:56:36;18.41;;;4.5;;
59653;SDS011;66556;52.008;5.432;2023-03-25T05:58:12;17.41;;;4.5;;
59653;SDS011;66556;52.008;5.432;2023-03-25T05:59:48;19.3;;;5.11;;
59653;SDS011;66556;52.008;5.432;2023-03-25T06:03:01;21.4;;;4.61;;
59653;SDS011;66556;52.008;5.432;2023-03-25T06:04:37;17.2;;;4.91;;
59653;SDS011;66556;52.008;5.432;2023-03-25T06:06:13;18.11;;;3.8;;
59653;SDS011;66556;52.008;5.432;2023-03-25T06:07:50;20.41;;;4.7;;
59653;SDS011;66556;52.008;5.432;2023-03-25T06:11:04;22.5;;;4.7;;
59653;SDS011;66556;52.008;5.432;2023-03-25T06:12:40;19.7;;;4.8;;
59653;SDS011;66556;52.008;5.432;2023-03-25T06:14:16;18.8;;;4.41;;
59653;SDS011;66556;52.008;5.432;2023-03-25T06:17:28;21.2;;;4.8;;
59653;SDS011;66556;52.008;5.432;2023-03-25T06:19:04;23.3;;;4.7;;
59653;SDS011;66556;52.008;5.432;2023-03-25T06:20:40;19.61;;;4.3;;
59653;SDS011;66556;52.008;5.432;2023-03-25T06:23:54;20.2;;;4.5;;
59653;SDS011;66556;52.008;5.432;2023-03-25T06:25:32;23.2;;;4.61;;
59653;SDS011;66556;52.008;5.432;2023-03-25T06:27:11;23.9;;;4.41;;
59653;SDS011;66556;52.008;5.432;2023-03-25T06:28:49;21.8;;;3.9;;
59653;SDS011;66556;52.008;5.432;2023-03-25T06:32:01;22.2;;;4.61;;
59653;SDS011;66556;52.008;5.432;2023-03-25T06:33:38;22.8;;;4.61;;
59653;SDS011;66556;52.008;5.432;2023-03-25T06:35:15;21.4;;;4.61;;
59653;SDS011;66556;52.008;5.432;2023-03-25T06:38:28;22.1;;;4.41;;
59653;SDS011;66556;52.008;5.432;2023-03-25T06:40:04;21.7;;;4.2;;
59653;SDS011;66556;52.008;5.432;2023-03-25T06:41:43;27.6;;;4.8;;
59653;SDS011;66556;52.008;5.432;2023-03-25T06:43:19;24.4;;;4.3;;
59653;SDS011;66556;52.008;5.432;2023-03-25T06:46:32;22.0;;;3.9;;
59653;SDS011;66556;52.008;5.432;2023-03-25T06:48:08;23.9;;;4.3;;
59653;SDS011;66556;52.008;5.432;2023-03-25T06:49:44;24.5;;;4.61;;
59653;SDS011;66556;52.008;5.432;2023-03-25T06:52:56;22.7;;;3.8;;
59653;SDS011;66556;52.008;5.432;2023-03-25T06:54:33;24.3;;;4.1;;
59653;SDS011;66556;52.008;5.432;2023-03-25T06:56:09;22.9;;;4.2;;
59653;SDS011;66556;52.008;5.432;2023-03-25T06:59:22;25.0;;;4.41;;
59653;SDS011;66556;52.008;5.432;2023-03-25T07:00:58;25.3;;;4.5;;
59653;SDS011;66556;52.008;5.432;2023-03-25T07:02:34;23.7;;;3.8;;
59653;SDS011;66556;52.008;5.432;2023-03-25T07:05:47;22.3;;;3.9;;
59653;SDS011;66556;52.008;5.432;2023-03-25T07:07:24;25.4;;;4.5;;
59653;SDS011;66556;52.008;5.432;2023-03-25T07:09:01;25.5;;;4.41;;
59653;SDS011;66556;52.008;5.432;2023-03-25T07:10:37;21.0;;;4.2;;
59653;SDS011;66556;52.008;5.432;2023-03-25T07:13:49;17.3;;;3.6;;
59653;SDS011;66556;52.008;5.432;2023-03-25T07:15:25;25.1;;;4.0;;
59653;SDS011;66556;52.008;5.432;2023-03-25T07:17:01;23.1;;;4.3;;
59653;SDS011;66556;52.008;5.432;2023-03-25T07:20:14;21.2;;;3.9;;
59653;SDS011;66556;52.008;5.432;2023-03-25T07:21:51;26.7;;;4.5;;
59653;SDS011;66556;52.008;5.432;2023-03-25T07:23:27;22.5;;;4.3;;
59653;SDS011;66556;52.008;5.432;2023-03-25T07:26:40;25.6;;;4.5;;
59653;SDS011;66556;52.008;5.432;2023-03-25T07:28:16;30.1;;;5.0;;
59653;SDS011;66556;52.008;5.432;2023-03-25T07:29:54;23.4;;;4.2;;
59653;SDS011;66556;52.008;5.432;2023-03-25T07:31:30;19.41;;;3.9;;
59653;SDS011;66556;52.008;5.432;2023-03-25T07:34:43;22.4;;;4.91;;
59653;SDS011;66556;52.008;5.432;2023-03-25T07:36:19;21.5;;;4.0;;
59653;SDS011;66556;52.008;5.432;2023-03-25T07:37:55;23.5;;;4.3;;
59653;SDS011;66556;52.008;5.432;2023-03-25T07:41:08;24.2;;;4.8;;
59653;SDS011;66556;52.008;5.432;2023-03-25T07:42:47;22.7;;;4.61;;
59653;SDS011;66556;52.008;5.432;2023-03-25T07:44:23;23.6;;;4.5;;
59653;SDS011;66556;52.008;5.432;2023-03-25T07:47:35;20.3;;;4.2;;
59653;SDS011;66556;52.008;5.432;2023-03-25T07:49:12;21.4;;;4.0;;
59653;SDS011;66556;52.008;5.432;2023-03-25T07:50:50;26.5;;;4.3;;
59653;SDS011;66556;52.008;5.432;2023-03-25T07:52:27;23.7;;;4.1;;
59653;SDS011;66556;52.008;5.432;2023-03-25T07:55:40;22.4;;;4.5;;
59653;SDS011;66556;52.008;5.432;2023-03-25T07:57:16;23.5;;;4.7;;
59653;SDS011;66556;52.008;5.432;2023-03-25T07:58:52;23.1;;;4.8;;
59653;SDS011;66556;52.008;5.432;2023-03-25T08:02:05;22.0;;;4.61;;
59653;SDS011;66556;52.008;5.432;2023-03-25T08:03:42;21.7;;;4.3;;
59653;SDS011;66556;52.008;5.432;2023-03-25T08:05:18;23.9;;;4.41;;
59653;SDS011;66556;52.008;5.432;2023-03-25T08:08:30;29.7;;;4.61;;
59653;SDS011;66556;52.008;5.432;2023-03-25T08:10:06;29.4;;;5.0;;
59653;SDS011;66556;52.008;5.432;2023-03-25T08:11:43;25.3;;;4.7;;
59653;SDS011;66556;52.008;5.432;2023-03-25T08:13:19;28.0;;;5.11;;
59653;SDS011;66556;52.008;5.432;2023-03-25T08:16:31;25.5;;;4.8;;
59653;SDS011;66556;52.008;5.432;2023-03-25T08:18:08;27.4;;;4.91;;
59653;SDS011;66556;52.008;5.432;2023-03-25T08:19:44;24.5;;;4.5;;
59653;SDS011;66556;52.008;5.432;2023-03-25T08:22:56;27.7;;;4.61;;
59653;SDS011;66556;52.008;5.432;2023-03-25T08:24:32;25.2;;;4.7;;
59653;SDS011;66556;52.008;5.432;2023-03-25T08:26:08;25.5;;;4.5;;
59653;SDS011;66556;52.008;5.432;2023-03-25T08:29:21;24.8;;;4.8;;
59653;SDS011;66556;52.008;5.432;2023-03-25T08:30:57;28.4;;;4.91;;
59653;SDS011;66556;52.008;5.432;2023-03-25T08:32:34;27.4;;;4.91;;
59653;SDS011;66556;52.008;5.432;2023-03-25T08:34:11;26.0;;;4.61;;
59653;SDS011;66556;52.008;5.432;2023-03-25T08:39:00;31.3;;;5.8;;
59653;SDS011;66556;52.008;5.432;2023-03-25T08:40:37;24.4;;;4.91;;
59653;SDS011;66556;52.008;5.432;2023-03-25T08:43:53;26.5;;;5.3;;
59653;SDS011;66556;52.008;5.432;2023-03-25T08:45:29;23.8;;;4.61;;
59653;SDS011;66556;52.008;5.432;2023-03-25T08:47:06;28.4;;;5.0;;
59653;SDS011;66556;52.008;5.432;2023-03-25T08:50:19;24.5;;;4.7;;
59653;SDS011;66556;52.008;5.432;2023-03-25T08:51:56;29.7;;;5.0;;
59653;SDS011;66556;52.008;5.432;2023-03-25T08:53:33;23.9;;;4.7;;
59653;SDS011;66556;52.008;5.432;2023-03-25T08:55:09;26.4;;;4.5;;
59653;SDS011;66556;52.008;5.432;2023-03-25T08:58:22;21.7;;;4.5;;
59653;SDS011;66556;52.008;5.432;2023-03-25T08:59:59;26.1;;;4.8;;
59653;SDS011;66556;52.008;5.432;2023-03-25T09:01:35;25.4;;;4.91;;
59653;SDS011;66556;52.008;5.432;2023-03-25T09:04:48;26.8;;;5.2;;
59653;SDS011;66556;52.008;5.432;2023-03-25T09:06:24;24.4;;;4.91;;
59653;SDS011;66556;52.008;5.432;2023-03-25T09:08:00;25.0;;;5.0;;
59653;SDS011;66556;52.008;5.432;2023-03-25T09:11:12;32.9;;;5.4;;
59653;SDS011;66556;52.008;5.432;2023-03-25T09:12:48;27.6;;;4.91;;
59653;SDS011;66556;52.008;5.432;2023-03-25T09:14:24;30.6;;;5.11;;
59653;SDS011;66556;52.008;5.432;2023-03-25T09:16:00;30.0;;;5.0;;
59653;SDS011;66556;52.008;5.432;2023-03-25T09:19:14;28.4;;;5.5;;
59653;SDS011;66556;52.008;5.432;2023-03-25T09:20:50;29.2;;;5.5;;
59653;SDS011;66556;52.008;5.432;2023-03-25T09:22:27;34.0;;;6.0;;
59653;SDS011;66556;52.008;5.432;2023-03-25T09:25:39;34.0;;;6.0;;
59653;SDS011;66556;52.008;5.432;2023-03-25T09:27:16;29.5;;;5.7;;
59653;SDS011;66556;52.008;5.432;2023-03-25T09:28:52;27.8;;;5.3;;
59653;SDS011;66556;52.008;5.432;2023-03-25T09:32:04;28.9;;;5.9;;
59653;SDS011;66556;52.008;5.432;2023-03-25T09:33:40;31.6;;;6.4;;
59653;SDS011;66556;52.008;5.432;2023-03-25T09:35:16;26.9;;;5.3;;
59653;SDS011;66556;52.008;5.432;2023-03-25T09:38:30;35.1;;;6.0;;
59653;SDS011;66556;52.008;5.432;2023-03-25T09:40:08;33.8;;;5.6;;
59653;SDS011;66556;52.008;5.432;2023-03-25T09:41:53;31.8;;;5.7;;
59653;SDS011;66556;52.008;5.432;2023-03-25T09:44:08;26.9;;;5.2;;
59653;SDS011;66556;52.008;5.432;2023-03-25T09:45:53;30.6;;;6.0;;
59653;SDS011;66556;52.008;5.432;2023-03-25T09:47:31;39.5;;;6.4;;
59653;SDS011;66556;52.008;5.432;2023-03-25T09:50:51;33.71;;;6.6;;
59653;SDS011;66556;52.008;5.432;2023-03-25T09:52:28;36.1;;;6.0;;
59653;SDS011;66556;52.008;5.432;2023-03-25T09:54:14;31.9;;;6.0;;
59653;SDS011;66556;52.008;5.432;2023-03-25T09:55:57;31.3;;;5.5;;
59653;SDS011;66556;52.008;5.432;2023-03-25T09:59:21;37.0;;;6.1;;
59653;SDS011;66556;52.008;5.432;2023-03-25T10:01:03;37.0;;;6.1;;
59653;SDS011;66556;52.008;5.432;2023-03-25T10:02:54;33.21;;;5.8;;
59653;SDS011;66556;52.008;5.432;2023-03-25T10:04:48;35.4;;;6.4;;
59653;SDS011;66556;52.008;5.432;2023-03-25T10:06:40;30.9;;;6.0;;
59653;SDS011;66556;52.008;5.432;2023-03-25T10:08:27;36.31;;;6.4;;
59653;SDS011;66556;52.008;5.432;2023-03-25T10:12:03;34.4;;;6.5;;
59653;SDS011;66556;52.008;5.432;2023-03-25T10:13:49;38.0;;;6.5;;
59653;SDS011;66556;52.008;5.432;2023-03-25T10:15:34;38.0;;;6.5;;
59653;SDS011;66556;52.008;5.432;2023-03-25T10:17:20;30.6;;;6.2;;
59653;SDS011;66556;52.008;5.432;2023-03-25T10:19:14;39.5;;;6.9;;
59653;SDS011;66556;52.008;5.432;2023-03-25T10:21:02;33.1;;;5.6;;
59653;SDS011;66556;52.008;5.432;2023-03-25T10:24:39;35.4;;;6.9;;
59653;SDS011;66556;52.008;5.432;2023-03-25T10:26:23;33.21;;;6.3;;
59653;SDS011;66556;52.008;5.432;2023-03-25T10:28:04;31.0;;;5.8;;
59653;SDS011;66556;52.008;5.432;2023-03-25T10:29:48;33.9;;;5.9;;
59653;SDS011;66556;52.008;5.432;2023-03-25T10:31:30;31.2;;;5.9;;
59653;SDS011;66556;52.008;5.432;2023-03-25T10:34:59;32.3;;;6.1;;
59653;SDS011;66556;52.008;5.432;2023-03-25T10:36:39;32.5;;;5.9;;
59653;SDS011;66556;52.008;5.432;2023-03-25T10:38:22;32.5;;;5.8;;
59653;SDS011;66556;52.008;5.432;2023-03-25T10:40:02;29.5;;;5.9;;
59653;SDS011;66556;52.008;5.432;2023-03-25T10:41:51;25.3;;;5.3;;
59653;SDS011;66556;52.008;5.432;2023-03-25T10:45:13;31.0;;;5.8;;
59653;SDS011;66556;52.008;5.432;2023-03-25T10:46:53;35.21;;;6.5;;
59653;SDS011;66556;52.008;5.432;2023-03-25T10:48:33;32.5;;;6.4;;
59653;SDS011;66556;52.008;5.432;2023-03-25T10:50:11;30.9;;;5.9;;
59653;SDS011;66556;52.008;5.432;2023-03-25T10:53:27;31.7;;;6.0;;
59653;SDS011;66556;52.008;5.432;2023-03-25T10:55:05;32.4;;;5.9;;
59653;SDS011;66556;52.008;5.432;2023-03-25T10:56:59;35.0;;;6.4;;
59653;SDS011;66556;52.008;5.432;2023-03-25T10:58:40;35.21;;;6.0;;
59653;SDS011;66556;52.008;5.432;2023-03-25T11:01:57;30.7;;;5.8;;
59653;SDS011;66556;52.008;5.432;2023-03-25T11:03:34;30.4;;;5.4;;
59653;SDS011;66556;52.008;5.432;2023-03-25T11:05:13;30.4;;;5.8;;
59653;SDS011;66556;52.008;5.432;2023-03-25T11:06:54;27.3;;;5.5;;
59653;SDS011;66556;52.008;5.432;2023-03-25T11:10:13;35.5;;;6.4;;
59653;SDS011;66556;52.008;5.432;2023-03-25T11:11:53;27.2;;;5.2;;
59653;SDS011;66556;52.008;5.432;2023-03-25T11:13:29;30.0;;;5.7;;
59653;SDS011;66556;52.008;5.432;2023-03-25T11:16:51;30.4;;;5.9;;
59653;SDS011;66556;52.008;5.432;2023-03-25T11:18:33;34.6;;;6.2;;
59653;SDS011;66556;52.008;5.432;2023-03-25T11:20:16;25.3;;;5.11;;
59653;SDS011;66556;52.008;5.432;2023-03-25T11:21:56;26.3;;;4.8;;
59653;SDS011;66556;52.008;5.432;2023-03-25T11:23:41;29.6;;;5.3;;
59653;SDS011;66556;52.008;5.432;2023-03-25T11:27:01;20.41;;;4.7;;
59653;SDS011;66556;52.008;5.432;2023-03-25T11:28:38;23.0;;;4.8;;
59653;SDS011;66556;52.008;5.432;2023-03-25T11:30:17;24.7;;;4.7;;
59653;SDS011;66556;52.008;5.432;2023-03-25T11:33:40;22.4;;;4.5;;
59653;SDS011;66556;52.008;5.432;2023-03-25T11:35:21;22.1;;;4.2;;
59653;SDS011;66556;52.008;5.432;2023-03-25T11:37:01;25.2;;;4.5;;
59653;SDS011;66556;52.008;5.432;2023-03-25T11:38:44;23.4;;;4.41;;
59653;SDS011;66556;52.008;5.432;2023-03-25T11:40:26;24.2;;;5.11;;
59653;SDS011;66556;52.008;5.432;2023-03-25T11:43:55;18.91;;;4.61;;
59653;SDS011;66556;52.008;5.432;2023-03-25T11:45:32;20.0;;;4.41;;
59653;SDS011;66556;52.008;5.432;2023-03-25T11:47:11;23.1;;;5.11;;
59653;SDS011;66556;52.008;5.432;2023-03-25T11:49:06;22.3;;;4.7;;
59653;SDS011;66556;52.008;5.432;2023-03-25T11:52:23;28.9;;;5.4;;
59653;SDS011;66556;52.008;5.432;2023-03-25T11:54:05;23.3;;;4.7;;
59653;SDS011;66556;52.008;5.432;2023-03-25T11:55:44;26.1;;;5.4;;
59653;SDS011;66556;52.008;5.432;2023-03-25T11:57:23;20.8;;;5.0;;
59653;SDS011;66556;52.008;5.432;2023-03-25T12:00:45;23.3;;;5.0;;
59653;SDS011;66556;52.008;5.432;2023-03-25T12:02:23;24.5;;;5.3;;
59653;SDS011;66556;52.008;5.432;2023-03-25T12:04:06;29.1;;;5.11;;
59653;SDS011;66556;52.008;5.432;2023-03-25T12:06:03;25.8;;;4.7;;
59653;SDS011;66556;52.008;5.432;2023-03-25T12:07:42;24.0;;;5.11;;
59653;SDS011;66556;52.008;5.432;2023-03-25T12:10:59;24.5;;;4.5;;
59653;SDS011;66556;52.008;5.432;2023-03-25T12:12:45;24.2;;;4.8;;
59653;SDS011;66556;52.008;5.432;2023-03-25T12:14:34;22.6;;;4.41;;
59653;SDS011;66556;52.008;5.432;2023-03-25T12:16:26;20.8;;;4.5;;
59653;SDS011;66556;52.008;5.432;2023-03-25T12:18:29;22.6;;;5.0;;
59653;SDS011;66556;52.008;5.432;2023-03-25T12:20:19;23.4;;;4.3;;
59653;SDS011;66556;52.008;5.432;2023-03-25T12:23:56;23.0;;;4.61;;
59653;SDS011;66556;52.008;5.432;2023-03-25T12:25:49;24.1;;;4.8;;
59653;SDS011;66556;52.008;5.432;2023-03-25T12:27:38;21.4;;;4.1;;
59653;SDS011;66556;52.008;5.432;2023-03-25T12:29:33;21.2;;;4.5;;
59653;SDS011;66556;52.008;5.432;2023-03-25T12:31:19;23.6;;;5.0;;
59653;SDS011;66556;52.008;5.432;2023-03-25T12:33:10;21.1;;;4.3;;
59653;SDS011;66556;52.008;5.432;2023-03-25T12:35:02;21.8;;;4.41;;
59653;SDS011;66556;52.008;5.432;2023-03-25T12:36:55;22.9;;;4.3;;
59653;SDS011;66556;52.008;5.432;2023-03-25T12:40:32;24.8;;;4.61;;
59653;SDS011;66556;52.008;5.432;2023-03-25T12:42:28;20.9;;;4.7;;
59653;SDS011;66556;52.008;5.432;2023-03-25T12:44:13;22.7;;;4.61;;
59653;SDS011;66556;52.008;5.432;2023-03-25T12:46:10;21.9;;;4.5;;
59653;SDS011;66556;52.008;5.432;2023-03-25T12:48:01;19.3;;;4.3;;
59653;SDS011;66556;52.008;5.432;2023-03-25T12:49:52;17.8;;;3.9;;
59653;SDS011;66556;52.008;5.432;2023-03-25T12:51:56;27.2;;;5.0;;